MST,Max TemperatureF,Mean TemperatureF,Min TemperatureF,Max Dew PointF,MeanDew PointF,Min DewpointF,Max Humidity, Mean Humidity, Min Humidity, Max Sea Level PressureIn, Mean Sea Level PressureIn, Min Sea Level PressureIn, Max VisibilityMiles, Mean VisibilityMiles, Min VisibilityMiles, Max Wind SpeedMPH, Mean Wind SpeedMPH, Max Gust SpeedMPH,PrecipitationIn, CloudCover, Events, WindDirDegrees
2011-12-1,36,28,19,30,26,15,100,77,54,29.88,29.76,29.59,10,4,0,16,5,22,0.42,7,Fog-Snow,88
2011-12-2,32,27,22,28,25,21,100,89,78,29.94,29.87,29.80,10,5,0,13,3,15,0.16,7,Fog-Snow,65
2011-12-3,29,18,6,25,19,3,96,83,69,30.19,29.91,29.80,10,4,0,25,5,30,0.23,7,Fog-Snow,224
2011-12-4,30,15,0,25,14,-3,100,84,68,30.20,30.07,29.96,10,8,0,13,3,15,0.00,4,Fog,233
2011-12-5,21,14,7,16,9,2,92,75,57,30.30,30.15,29.98,10,8,2,23,11,29,0.01,4,Snow,59
2011-12-6,34,17,0,11,4,-3,87,59,31,30.45,30.37,30.26,10,10,10,14,3,18,0.00,0,,59
2011-12-7,40,21,2,15,7,-2,91,62,33,30.47,30.34,30.19,10,10,10,9,3,13,0.00,0,,32
2011-12-8,42,22,2,19,9,-2,88,61,33,30.33,30.23,30.16,10,10,7,12,2,15,0.00,0,,56
2011-12-9,40,21,2,21,9,0,88,57,25,30.47,30.34,30.22,10,10,10,14,2,18,0.00,0,,54
2011-12-10,40,23,6,21,13,4,92,65,37,30.44,30.30,30.15,10,10,10,12,2,14,0.00,0,,60
2011-12-11,40,24,7,24,16,3,92,68,44,30.19,30.06,29.91,10,10,10,21,4,28,0.00,0,,223
2011-12-12,32,27,22,31,28,20,100,92,84,29.93,29.86,29.81,10,3,0,15,5,21,0.87,8,Fog-Snow,209
2011-12-13,33,30,26,30,28,26,100,93,85,29.95,29.89,29.81,10,3,0,10,4,13,0.41,8,Fog-Snow,168
2011-12-14,35,22,8,27,24,6,100,82,64,30.27,30.08,29.93,10,8,2,13,5,16,0.02,6,Snow,236
2011-12-15,34,18,1,25,14,-3,88,76,63,30.31,30.23,30.11,10,10,10,14,5,18,0.00,1,,70
2011-12-16,31,27,22,22,20,19,96,80,63,30.32,30.20,30.13,10,10,10,26,17,33,0.00,3,,61
2011-12-17,36,31,26,24,22,20,81,70,59,30.32,30.27,30.17,10,10,10,23,13,28,T,3,,78
2011-12-18,38,33,27,34,30,23,100,86,72,30.15,30.04,29.89,10,5,0,10,3,14,0.16,8,Fog-Snow,87
2011-12-19,40,34,28,32,30,27,100,85,70,30.01,29.92,29.83,10,5,0,15,8,20,0.00,6,Fog,230
2011-12-20,38,27,15,30,24,12,100,74,48,30.02,29.97,29.89,10,8,0,14,2,16,0.00,4,Fog,62
2011-12-21,41,25,9,27,19,6,100,76,52,30.08,29.98,29.90,10,10,5,16,6,20,0.00,1,,234
2011-12-22,24,21,17,19,10,1,92,67,41,30.21,30.10,29.98,10,8,2,24,10,31,T,5,Snow,43
2011-12-23,31,24,17,14,8,-2,80,54,28,30.40,30.26,30.12,10,6,1,29,17,39,T,5,Snow,40
2011-12-24,35,25,15,7,3,0,47,37,27,30.47,30.40,30.35,10,10,10,29,13,35,0.00,0,,61
2011-12-25,44,25,6,12,6,-1,76,48,20,30.52,30.44,30.31,10,10,10,15,4,20,0.00,0,,79
2011-12-26,53,34,15,11,3,-10,74,42,10,30.32,30.26,30.17,10,10,10,12,4,18,0.00,0,,268
2011-12-27,52,30,8,10,3,-8,73,41,9,30.41,30.30,30.19,10,10,10,13,3,18,0.00,0,,246
2011-12-28,59,35,11,18,9,-12,76,41,5,30.47,30.35,30.24,10,10,10,9,1,10,0.00,0,,63
2011-12-29,61,40,19,30,21,11,75,50,25,30.32,30.18,30.07,10,10,10,13,2,18,0.00,0,,258
2011-12-30,57,41,25,28,25,21,88,56,24,30.25,30.14,30.06,10,10,10,17,4,23,0.00,0,,237
2011-12-31,56,39,22,26,13,-3,92,51,9,30.37,30.21,30.04,10,10,10,12,4,20,0.00,0,,188